Time;durP1;ratioP1;P1;durP2;ratioP2;P2;SDS_P1;SDS_P2;PMS_P1;PMS_P2;Temp;Humidity;BMP_temperature;BMP_pressure;BME280_temperature;BME280_humidity;BME280_pressure;Samples;Min_cycle;Max_cycle;Signal;HPM_P1;HPM_P2
2021/09/28 00:01:48;;;;;;;35.38;31.73;;;;;;;15.94;100.00;101090.31;5048018;28;20243;-71
2021/09/28 00:04:16;;;;;;;36.55;31.73;;;;;;;15.91;100.00;101090.53;5043860;28;20838;-70
2021/09/28 00:06:43;;;;;;;36.70;30.20;;;;;;;15.87;100.00;101087.22;5053775;28;20168;-70
2021/09/28 00:09:10;;;;;;;36.85;32.20;;;;;;;15.83;100.00;101084.91;5046748;28;20104;-71
2021/09/28 00:11:38;;;;;;;41.25;34.40;;;;;;;15.78;100.00;101089.72;5042798;28;20471;-70
2021/09/28 00:14:05;;;;;;;37.78;33.67;;;;;;;15.74;100.00;101093.56;5041677;28;20384;-71
2021/09/28 00:16:32;;;;;;;39.20;34.42;;;;;;;15.69;100.00;101094.75;5046407;28;20288;-69
2021/09/28 00:18:59;;;;;;;41.67;33.00;;;;;;;15.62;100.00;101096.09;5044746;28;20068;-70
2021/09/28 00:21:27;;;;;;;42.22;34.55;;;;;;;15.56;100.00;101093.06;5048100;28;20067;-70
2021/09/28 00:23:54;;;;;;;37.83;32.78;;;;;;;15.49;100.00;101097.97;5046404;28;20055;-69
2021/09/28 00:26:21;;;;;;;39.83;33.83;;;;;;;15.49;100.00;101099.75;5044972;28;20128;-70
2021/09/28 00:28:49;;;;;;;42.97;34.72;;;;;;;15.48;100.00;101108.69;5021606;28;20076;-70
2021/09/28 00:31:16;;;;;;;42.70;36.47;;;;;;;15.38;100.00;101105.84;5026688;28;20115;-70
2021/09/28 00:33:44;;;;;;;43.53;37.78;;;;;;;15.31;100.00;101112.53;5024510;28;20048;-68
2021/09/28 00:36:11;;;;;;;44.33;35.88;;;;;;;15.36;100.00;101107.78;5046615;28;20148;-70
2021/09/28 00:38:38;;;;;;;43.85;36.20;;;;;;;15.36;100.00;101102.47;5045144;28;20139;-70
2021/09/28 00:41:06;;;;;;;48.80;38.58;;;;;;;15.37;100.00;101110.31;5050986;28;20061;-70
2021/09/28 00:43:53;;;;;;;45.60;38.50;;;;;;;15.51;100.00;101114.63;5049798;28;20140;-71
2021/09/28 00:46:24;;;;;;;44.60;37.53;;;;;;;15.48;100.00;101117.47;5041589;28;20200;-69
2021/09/28 00:48:52;;;;;;;43.20;37.03;;;;;;;15.45;100.00;101121.22;5041332;28;20071;-69
2021/09/28 00:51:19;;;;;;;45.28;37.08;;;;;;;15.46;100.00;101116.75;5043349;28;20632;-69
2021/09/28 00:53:49;;;;;;;43.15;35.13;;;;;;;15.55;100.00;101115.25;5041676;28;20131;-69
2021/09/28 00:56:18;;;;;;;39.78;35.55;;;;;;;15.68;100.00;101122.25;5039949;28;20025;-70
2021/09/28 00:58:45;;;;;;;51.13;38.13;;;;;;;15.65;100.00;101124.28;5049383;28;20519;-69
2021/09/28 01:01:14;;;;;;;45.28;34.22;;;;;;;15.67;100.00;101114.41;5039345;28;20128;-70
2021/09/28 01:03:41;;;;;;;45.20;36.97;;;;;;;15.63;100.00;101126.16;5042831;28;20070;-70
2021/09/28 01:06:08;;;;;;;48.22;36.63;;;;;;;15.79;100.00;101131.22;5043705;28;20122;-70
2021/09/28 01:08:35;;;;;;;44.22;35.03;;;;;;;15.86;100.00;101128.03;5046958;28;20199;-70
2021/09/28 01:11:03;;;;;;;41.03;34.97;;;;;;;15.90;100.00;101126.84;5034617;28;20040;-70
2021/09/28 01:13:30;;;;;;;41.83;34.47;;;;;;;15.86;100.00;101128.03;5043560;28;20192;-72
2021/09/28 01:16:00;;;;;;;41.30;34.08;;;;;;;15.83;100.00;101130.91;5043529;28;20136;-70
2021/09/28 01:18:29;;;;;;;41.55;32.90;;;;;;;15.87;100.00;101127.06;5039917;28;20057;-71
2021/09/28 01:20:57;;;;;;;41.60;34.53;;;;;;;15.86;100.00;101125.38;5042168;28;20049;-72
2021/09/28 01:23:24;;;;;;;38.45;33.55;;;;;;;15.82;100.00;101131.88;5044440;28;20124;-70
2021/09/28 01:25:52;;;;;;;40.83;33.70;;;;;;;15.81;100.00;101124.88;5043304;28;20051;-70
2021/09/28 01:28:19;;;;;;;40.92;32.55;;;;;;;15.77;100.00;101123.38;5046323;28;20442;-68
2021/09/28 01:30:46;;;;;;;46.30;34.78;;;;;;;15.76;100.00;101128.78;5043629;28;20348;-69
2021/09/28 01:33:15;;;;;;;43.72;34.10;;;;;;;15.78;100.00;101126.88;5039913;28;20065;-69
2021/09/28 01:35:42;;;;;;;38.00;31.80;;;;;;;15.77;100.00;101127.84;5048399;28;20127;-70
2021/09/28 01:38:09;;;;;;;41.20;32.95;;;;;;;15.84;100.00;101129.09;5024313;28;20136;-70
2021/09/28 01:40:37;;;;;;;39.67;33.55;;;;;;;15.87;100.00;101131.53;5044272;28;20390;-69
2021/09/28 01:43:11;;;;;;;40.92;35.13;;;;;;;15.84;100.00;101129.09;5045507;28;20435;-68
2021/09/28 01:45:39;;;;;;;34.13;30.38;;;;;;;15.85;100.00;101136.09;5025178;28;20549;-69
2021/09/28 01:48:06;;;;;;;45.13;32.45;;;;;;;15.87;100.00;101128.88;5046848;28;20064;-69
2021/09/28 01:50:34;;;;;;;35.88;30.17;;;;;;;15.92;100.00;101127.56;5045369;28;20049;-70
2021/09/28 01:53:03;;;;;;;35.20;31.40;;;;;;;15.85;100.00;101130.78;5044607;28;20140;-70
2021/09/28 01:55:30;;;;;;;41.40;31.58;;;;;;;15.88;100.00;101127.91;5021015;28;20466;-70
2021/09/28 01:57:58;;;;;;;35.78;30.23;;;;;;;15.91;100.00;101136.50;5046474;28;20512;-71
2021/09/28 02:00:26;;;;;;;33.63;29.50;;;;;;;15.92;100.00;101138.19;5034963;28;20571;-71
2021/09/28 02:02:53;;;;;;;35.63;29.13;;;;;;;16.04;100.00;101138.25;5044029;28;20076;-71
2021/09/28 02:05:21;;;;;;;31.67;27.52;;;;;;;16.11;100.00;101136.84;5039868;28;20091;-70
2021/09/28 02:07:48;;;;;;;35.47;26.10;;;;;;;16.12;100.00;101134.09;5044182;28;20045;-69
2021/09/28 02:10:15;;;;;;;26.35;23.55;;;;;;;16.22;100.00;101136.91;5038878;28;20059;-70
2021/09/28 02:12:44;;;;;;;24.52;21.75;;;;;;;16.30;100.00;101137.19;5044323;28;20073;-69
2021/09/28 02:15:11;;;;;;;28.98;22.92;;;;;;;16.34;100.00;101135.13;5044161;28;20067;-70
2021/09/28 02:17:40;;;;;;;25.88;21.83;;;;;;;16.47;100.00;101133.22;5046241;28;20098;-69
2021/09/28 02:20:08;;;;;;;24.77;20.60;;;;;;;16.55;100.00;101130.84;5038132;28;20049;-69
2021/09/28 02:22:37;;;;;;;24.58;20.77;;;;;;;16.65;100.00;101131.00;5019655;28;20564;-71
2021/09/28 02:25:06;;;;;;;23.05;20.23;;;;;;;16.66;100.00;101138.00;5022034;28;20083;-70
2021/09/28 02:27:33;;;;;;;29.73;20.70;;;;;;;16.63;100.00;101141.75;5042604;28;20049;-70
2021/09/28 02:30:02;;;;;;;24.20;20.30;;;;;;;16.63;100.00;101141.75;5039781;28;20040;-70
2021/09/28 02:32:29;;;;;;;26.15;20.80;;;;;;;16.65;100.00;101147.78;5041419;28;20045;-68
2021/09/28 02:34:57;;;;;;;25.83;20.60;;;;;;;16.73;100.00;101138.41;5044319;28;20159;-70
2021/09/28 02:37:24;;;;;;;25.10;19.63;;;;;;;16.78;100.00;101146.88;5044376;28;20521;-70
2021/09/28 02:39:51;;;;;;;24.90;19.58;;;;;;;16.76;100.00;101144.34;5047598;28;20132;-69
2021/09/28 02:42:18;;;;;;;24.27;20.48;;;;;;;16.76;100.00;101148.84;5045388;28;20045;-71
2021/09/28 02:44:48;;;;;;;24.50;19.88;;;;;;;16.80;100.00;101139.66;5044317;28;20439;-67
2021/09/28 02:47:15;;;;;;;23.65;21.08;;;;;;;16.75;100.00;101136.47;5044752;28;20065;-68
2021/09/28 02:49:42;;;;;;;22.25;18.77;;;;;;;16.79;100.00;101141.44;5045877;28;20080;-71
2021/09/28 02:52:11;;;;;;;21.70;18.02;;;;;;;16.82;100.00;101132.41;5048276;28;20052;-73
2021/09/28 02:54:38;;;;;;;23.27;18.63;;;;;;;16.78;100.00;101136.25;5043592;28;20113;-70
2021/09/28 02:57:05;;;;;;;22.33;17.92;;;;;;;16.75;100.00;101145.34;5049566;28;20072;-68
2021/09/28 02:59:32;;;;;;;23.27;17.50;;;;;;;16.83;100.00;101136.75;5046146;28;20532;-69
2021/09/28 03:02:00;;;;;;;22.75;16.77;;;;;;;16.86;100.00;101139.19;5050502;28;20053;-70
2021/09/28 03:04:27;;;;;;;21.00;15.90;;;;;;;16.90;100.00;101146.78;5040254;28;20072;-69
2021/09/28 03:06:55;;;;;;;21.25;15.55;;;;;;;16.90;100.00;101144.13;5049821;28;20084;-68
2021/09/28 03:09:22;;;;;;;18.60;15.55;;;;;;;16.85;100.00;101148.97;5044795;28;20606;-71
2021/09/28 03:11:49;;;;;;;18.35;14.32;;;;;;;16.82;100.00;101151.84;5050014;28;20132;-68
2021/09/28 03:14:16;;;;;;;20.63;16.45;;;;;;;16.84;100.00;101157.03;5045893;28;20383;-71
2021/09/28 03:16:43;;;;;;;19.25;17.23;;;;;;;16.86;100.00;101152.47;5055750;28;20049;-69
2021/09/28 03:19:11;;;;;;;21.20;18.73;;;;;;;16.78;100.00;101158.38;5044608;28;20095;-69
2021/09/28 03:21:38;;;;;;;25.85;18.00;;;;;;;16.77;100.00;101166.47;5046967;28;20098;-70
2021/09/28 03:24:05;;;;;;;22.58;18.48;;;;;;;16.83;100.00;101166.00;5044637;28;20076;-70
2021/09/28 03:26:34;;;;;;;22.35;16.80;;;;;;;16.71;100.00;101165.09;5048261;28;20049;-69
2021/09/28 03:29:01;;;;;;;19.73;15.65;;;;;;;16.65;100.00;101168.22;5046777;28;20119;-70
2021/09/28 03:31:28;;;;;;;23.83;16.00;;;;;;;16.66;100.00;101176.09;5051157;28;20514;-69
2021/09/28 03:33:56;;;;;;;24.45;17.35;;;;;;;16.58;100.00;101175.81;5047192;28;20053;-68
2021/09/28 03:36:23;;;;;;;23.23;16.70;;;;;;;16.60;100.00;101178.34;5046636;28;20045;-69
2021/09/28 03:38:50;;;;;;;22.85;16.38;;;;;;;16.52;100.00;101172.75;5041545;28;20053;-71
2021/09/28 03:41:17;;;;;;;20.88;16.33;;;;;;;16.52;100.00;101170.09;5030097;28;20049;-69
2021/09/28 03:43:44;;;;;;;23.45;14.82;;;;;;;16.51;100.00;101173.72;5045120;28;20136;-69
2021/09/28 03:46:12;;;;;;;19.63;14.32;;;;;;;16.56;100.00;101184.84;5046475;28;20577;-69
2021/09/28 03:48:39;;;;;;;18.63;13.50;;;;;;;16.57;100.00;101183.88;5042512;28;20057;-68
2021/09/28 03:51:07;;;;;;;15.00;11.65;;;;;;;16.54;100.00;101178.81;5044878;28;20080;-67
2021/09/28 03:53:34;;;;;;;18.13;11.35;;;;;;;16.47;100.00;101183.72;5049159;28;22051;-71
2021/09/28 03:56:01;;;;;;;12.32;10.57;;;;;;;16.41;100.00;101182.38;5042366;28;20132;-71
2021/09/28 03:58:28;;;;;;;19.08;10.75;;;;;;;16.42;100.00;101185.88;5045484;28;20140;-69
2021/09/28 04:00:56;;;;;;;14.95;10.05;;;;;;;16.43;100.00;101179.59;5042602;28;20335;-69
2021/09/28 04:03:23;;;;;;;13.40;9.85;;;;;;;16.36;100.00;101191.66;5046505;28;20363;-67
2021/09/28 04:05:50;;;;;;;12.65;8.73;;;;;;;16.27;100.00;101187.88;5045398;28;20179;-68
2021/09/28 04:08:17;;;;;;;11.90;8.60;;;;;;;16.33;100.00;101190.06;5045021;28;20603;-71
2021/09/28 04:10:45;;;;;;;10.82;7.75;;;;;;;16.38;100.00;101203.84;5043172;28;20381;-69
2021/09/28 04:13:12;;;;;;;10.68;7.97;;;;;;;16.25;100.00;101203.06;5047167;28;20059;-69
2021/09/28 04:15:40;;;;;;;11.80;8.48;;;;;;;16.24;100.00;101203.19;5044835;28;20056;-71
2021/09/28 04:18:09;;;;;;;11.73;8.65;;;;;;;16.26;100.00;101203.94;5048816;28;20079;-69
2021/09/28 04:20:38;;;;;;;13.30;8.80;;;;;;;16.15;100.00;101208.22;5044742;28;20485;-71
2021/09/28 04:23:05;;;;;;;11.20;8.95;;;;;;;16.09;100.00;101207.81;5049642;28;20086;-73
2021/09/28 04:25:32;;;;;;;10.07;7.95;;;;;;;16.08;100.00;101211.44;5046398;28;20056;-70
2021/09/28 04:28:00;;;;;;;13.48;9.02;;;;;;;15.96;100.00;101210.50;5044508;28;20560;-72
2021/09/28 04:30:27;;;;;;;12.07;9.10;;;;;;;16.05;100.00;101217.81;5039822;28;20063;-69
2021/09/28 04:32:55;;;;;;;16.50;8.60;;;;;;;16.01;100.00;101220.81;5043968;28;20053;-67
2021/09/28 04:35:22;;;;;;;12.30;8.50;;;;;;;15.86;100.00;101228.91;5039556;28;20056;-69
2021/09/28 04:37:49;;;;;;;11.85;8.30;;;;;;;15.82;100.00;101234.56;5037856;28;20136;-70
2021/09/28 04:40:16;;;;;;;11.88;8.27;;;;;;;15.76;100.00;101238.50;5043099;28;20139;-70
2021/09/28 04:42:43;;;;;;;12.93;8.60;;;;;;;15.77;100.00;101237.53;5041300;28;20128;-69
2021/09/28 04:45:11;;;;;;;9.15;7.38;;;;;;;15.69;100.00;101238.06;5037547;28;20049;-70
2021/09/28 04:47:39;;;;;;;8.10;5.95;;;;;;;15.77;100.00;101239.34;5047064;28;20495;-67
2021/09/28 04:50:07;;;;;;;9.38;6.57;;;;;;;15.71;100.00;101245.91;5044087;28;20121;-69
2021/09/28 04:52:36;;;;;;;11.57;6.50;;;;;;;15.66;100.00;101246.25;5042270;28;20052;-70
2021/09/28 04:55:05;;;;;;;11.95;6.25;;;;;;;15.77;100.00;101244.66;5040233;28;20064;-67
2021/09/28 04:57:32;;;;;;;7.22;5.20;;;;;;;15.74;100.00;101255.47;5043505;28;20048;-67
2021/09/28 04:59:59;;;;;;;8.68;5.30;;;;;;;15.67;100.00;101258.59;5041604;28;20558;-69
2021/09/28 05:02:26;;;;;;;11.27;5.80;;;;;;;15.69;100.00;101255.81;5046779;28;20045;-70
2021/09/28 05:04:55;;;;;;;11.52;4.97;;;;;;;15.66;100.00;101259.50;5042402;28;20064;-70
2021/09/28 05:07:22;;;;;;;6.95;4.07;;;;;;;15.65;100.00;101265.78;5044436;28;20487;-69
2021/09/28 05:09:49;;;;;;;6.72;4.05;;;;;;;15.62;100.00;101265.09;5043047;28;20053;-70
2021/09/28 05:12:16;;;;;;;8.38;4.32;;;;;;;15.61;100.00;101274.88;5044526;28;20055;-68
2021/09/28 05:14:43;;;;;;;12.43;4.78;;;;;;;15.62;100.00;101273.91;5041803;28;20633;-69
2021/09/28 05:17:11;;;;;;;9.52;4.47;;;;;;;15.61;100.00;101282.84;5043376;28;20064;-70
2021/09/28 05:19:38;;;;;;;8.63;3.95;;;;;;;15.61;100.00;101285.50;5047081;28;20100;-69
2021/09/28 05:22:05;;;;;;;8.35;4.43;;;;;;;15.50;100.00;101287.22;5044004;28;20075;-70
2021/09/28 05:24:32;;;;;;;7.30;3.67;;;;;;;15.61;100.00;101301.41;5028754;28;20045;-63
2021/09/28 05:26:59;;;;;;;7.60;3.72;;;;;;;15.55;100.00;101298.34;5049977;28;20530;-63
2021/09/28 05:29:26;;;;;;;9.98;3.72;;;;;;;15.32;100.00;101307.91;5044228;28;20907;-65
2021/09/28 05:31:54;;;;;;;7.63;4.30;;;;;;;15.31;100.00;101301.75;5046350;28;20152;-63
2021/09/28 05:34:23;;;;;;;10.32;3.83;;;;;;;15.49;100.00;101304.06;5043773;28;20678;-63
2021/09/28 05:36:51;;;;;;;10.25;4.15;;;;;;;15.47;100.00;101306.84;5047520;28;20053;-64
2021/09/28 05:39:19;;;;;;;12.38;3.92;;;;;;;15.45;100.00;101311.41;5039084;28;20052;-62
2021/09/28 05:41:46;;;;;;;10.25;3.38;;;;;;;15.51;100.00;101308.31;5041758;28;20126;-63
2021/09/28 05:44:14;;;;;;;16.10;4.10;;;;;;;15.64;100.00;101309.22;5041492;28;20049;-66
2021/09/28 05:46:41;;;;;;;11.35;3.15;;;;;;;15.63;100.00;101315.47;5047113;28;20041;-63
2021/09/28 05:49:08;;;;;;;8.38;2.58;;;;;;;15.43;100.00;101321.25;5042059;28;20053;-63
2021/09/28 05:51:37;;;;;;;5.32;2.05;;;;;;;15.49;100.00;101320.88;5043305;28;20049;-63
2021/09/28 05:54:06;;;;;;;3.90;1.88;;;;;;;15.36;100.00;101320.00;5037929;28;20068;-61
2021/09/28 05:56:33;;;;;;;4.07;1.98;;;;;;;15.69;100.00;101325.66;5035990;28;20495;-64
2021/09/28 05:59:01;;;;;;;4.65;1.77;;;;;;;15.68;100.00;101326.63;5041379;28;20053;-65
2021/09/28 06:01:28;;;;;;;7.50;2.28;;;;;;;15.66;100.00;101333.84;5039349;28;20491;-62
2021/09/28 06:03:55;;;;;;;10.77;3.53;;;;;;;15.91;100.00;101340.97;5042160;28;20053;-64
2021/09/28 06:06:26;;;;;;;9.65;2.67;;;;;;;16.09;100.00;101328.19;5042711;28;20418;-62
2021/09/28 06:08:54;;;;;;;18.88;2.72;;;;;;;16.11;100.00;101334.22;5044610;28;20049;-66
2021/09/28 06:11:22;;;;;;;8.32;1.95;;;;;;;16.29;100.00;101329.41;5043781;28;20598;-64
2021/09/28 06:13:50;;;;;;;9.10;2.40;;;;;;;16.30;100.00;101335.56;5041720;28;20130;-63
2021/09/28 06:16:18;;;;;;;6.88;2.10;;;;;;;16.28;100.00;101340.16;5041696;28;20048;-64
2021/09/28 06:18:46;;;;;;;10.23;2.75;;;;;;;16.14;100.00;101343.81;5043087;28;20113;-60
2021/09/28 06:21:13;;;;;;;10.13;2.40;;;;;;;16.08;100.00;101346.91;5041814;28;20144;-64
2021/09/28 06:23:40;;;;;;;8.98;1.95;;;;;;;15.93;100.00;101348.81;5021903;28;20049;-61
2021/09/28 06:26:09;;;;;;;7.57;2.72;;;;;;;15.96;100.00;101345.94;5040882;28;20058;-62
2021/09/28 06:28:37;;;;;;;7.07;2.22;;;;;;;15.86;100.00;101350.22;5044343;28;20073;-65
2021/09/28 06:31:04;;;;;;;7.55;1.80;;;;;;;16.00;100.00;101347.44;5040093;28;20252;-62
2021/09/28 06:33:32;;;;;;;5.05;1.92;;;;;;;16.04;100.00;101353.38;5043357;28;20136;-58
2021/09/28 06:35:59;;;;;;;7.70;2.28;;;;;;;16.14;100.00;101357.94;5047926;28;20056;-61
2021/09/28 06:38:26;;;;;;;8.48;2.40;;;;;;;15.82;100.00;101362.00;5037731;28;20048;-61
2021/09/28 06:40:53;;;;;;;5.97;1.98;;;;;;;16.00;100.00;101362.53;5043951;28;20409;-62
2021/09/28 06:43:20;;;;;;;6.35;2.38;;;;;;;16.11;100.00;101367.91;5046400;28;20497;-67
2021/09/28 06:45:48;;;;;;;2.90;1.52;;;;;;;16.15;99.89;101362.28;5040457;28;20136;-64
2021/09/28 06:48:16;;;;;;;8.32;2.10;;;;;;;16.19;99.92;101368.22;5047270;28;20443;-61
2021/09/28 06:50:43;;;;;;;8.35;2.65;;;;;;;16.30;98.81;101365.69;5037174;28;20081;-63
2021/09/28 06:53:11;;;;;;;17.10;3.97;;;;;;;16.61;98.17;101364.28;5046036;28;20047;-65
2021/09/28 06:55:38;;;;;;;8.75;2.17;;;;;;;17.13;94.00;101367.63;5040409;28;20084;-64
2021/09/28 06:58:05;;;;;;;8.98;3.03;;;;;;;16.93;93.17;101366.44;5043158;28;20127;-64
2021/09/28 07:00:35;;;;;;;10.80;2.58;;;;;;;17.21;91.91;101368.75;5041009;28;20726;-63
2021/09/28 07:03:04;;;;;;;7.18;2.08;;;;;;;17.75;88.77;101374.53;5041510;28;20044;-65
2021/09/28 07:05:32;;;;;;;8.13;1.77;;;;;;;17.50;88.12;101388.81;5044393;28;20057;-65
2021/09/28 07:07:59;;;;;;;9.75;2.28;;;;;;;16.77;89.68;101389.81;5044567;28;20076;-64
2021/09/28 07:10:26;;;;;;;15.57;2.20;;;;;;;16.73;90.83;101389.19;5043303;28;20063;-61
2021/09/28 07:12:54;;;;;;;7.97;2.08;;;;;;;16.46;90.99;101389.34;5045834;28;20076;-62
2021/09/28 07:15:21;;;;;;;8.40;2.58;;;;;;;16.45;91.84;101398.28;5033835;28;20140;-63
2021/09/28 07:17:49;;;;;;;14.63;2.33;;;;;;;16.35;92.35;101405.22;5022472;28;20055;-61
2021/09/28 07:20:16;;;;;;;14.73;2.28;;;;;;;16.30;93.19;101412.63;5036036;28;20049;-63
2021/09/28 07:22:44;;;;;;;14.80;2.70;;;;;;;16.28;93.48;101422.53;5041130;28;20155;-66
2021/09/28 07:25:11;;;;;;;10.18;1.73;;;;;;;16.29;92.92;101426.88;5043626;28;20049;-64
2021/09/28 07:27:58;;;;;;;7.95;2.20;;;;;;;16.12;93.64;101422.72;5044644;28;20059;-63
2021/09/28 07:30:27;;;;;;;11.18;2.35;;;;;;;16.19;93.86;101432.84;5037037;28;20049;-60
2021/09/28 07:32:54;;;;;;;16.98;3.33;;;;;;;16.21;93.55;101424.78;5047095;28;20137;-63
2021/09/28 07:35:21;;;;;;;10.05;1.88;;;;;;;16.30;92.88;101429.44;5041989;28;20132;-62
2021/09/28 07:37:48;;;;;;;11.23;2.17;;;;;;;16.26;93.67;101437.75;5044778;28;20037;-62
2021/09/28 07:40:16;;;;;;;9.57;2.38;;;;;;;16.29;93.80;101434.84;5036950;28;20056;-65
2021/09/28 07:42:45;;;;;;;16.15;2.67;;;;;;;15.92;95.16;101432.94;5054287;28;20102;-65
2021/09/28 07:45:13;;;;;;;17.10;3.15;;;;;;;16.07;96.60;101449.63;5045747;28;20041;-61
2021/09/28 07:47:41;;;;;;;14.05;3.13;;;;;;;15.95;95.49;101446.00;5048776;28;20085;-62
2021/09/28 07:50:09;;;;;;;9.25;3.25;;;;;;;15.88;95.99;101446.53;5041165;28;20049;-62
2021/09/28 07:52:36;;;;;;;8.23;2.20;;;;;;;15.94;96.41;101443.47;5036696;28;20048;-65
2021/09/28 07:55:03;;;;;;;17.65;3.45;;;;;;;15.97;96.14;101442.41;5045064;28;20049;-63
2021/09/28 07:57:30;;;;;;;11.93;2.63;;;;;;;15.93;97.46;101445.25;5049678;28;20148;-62
2021/09/28 07:59:58;;;;;;;12.60;2.40;;;;;;;15.70;98.81;101452.13;5051566;28;20075;-63
2021/09/28 08:02:26;;;;;;;11.65;3.30;;;;;;;15.69;100.00;101454.88;5047285;28;20080;-64
2021/09/28 08:04:54;;;;;;;11.40;1.92;;;;;;;15.73;99.27;101461.69;5046846;28;20530;-62
2021/09/28 08:07:22;;;;;;;13.80;2.70;;;;;;;15.66;100.00;101460.41;5045684;28;20632;-63
2021/09/28 08:09:49;;;;;;;12.88;2.45;;;;;;;15.69;100.00;101463.69;5044677;28;20049;-63
2021/09/28 08:12:16;;;;;;;11.15;2.70;;;;;;;15.74;99.91;101459.88;5046972;28;20044;-63
2021/09/28 08:14:43;;;;;;;13.50;2.55;;;;;;;15.58;100.00;101468.84;5045806;28;20068;-62
2021/09/28 08:17:11;;;;;;;9.13;2.72;;;;;;;15.45;100.00;101484.72;5043143;28;20052;-65
2021/09/28 08:19:39;;;;;;;10.40;2.42;;;;;;;15.44;100.00;101495.44;5028410;28;20146;-64
2021/09/28 08:22:12;;;;;;;12.07;2.53;;;;;;;15.19;100.00;101488.22;5046627;28;20148;-64
2021/09/28 08:24:42;;;;;;;13.80;3.20;;;;;;;15.05;100.00;101488.28;5041684;28;20049;-62
2021/09/28 08:29:59;;;;;;;19.42;3.67;;;;;;;14.97;100.00;101501.16;5043857;28;20528;-63
2021/09/28 08:32:27;;;;;;;12.48;2.72;;;;;;;15.05;100.00;101505.03;5050473;28;20045;-63
2021/09/28 08:34:54;;;;;;;12.48;3.50;;;;;;;15.11;100.00;101507.28;5043225;28;20064;-63
2021/09/28 08:37:21;;;;;;;10.18;2.72;;;;;;;15.12;100.00;101498.38;5052225;28;20049;-63
2021/09/28 08:39:48;;;;;;;10.48;2.38;;;;;;;15.13;100.00;101504.53;5042432;28;20485;-64
2021/09/28 08:42:15;;;;;;;12.27;2.90;;;;;;;15.27;100.00;101504.50;5046486;28;20053;-63
2021/09/28 08:44:42;;;;;;;13.10;4.00;;;;;;;15.29;100.00;101504.41;5038075;28;20053;-63
2021/09/28 08:47:10;;;;;;;15.10;2.72;;;;;;;15.20;100.00;101514.66;5048279;28;20143;-64
2021/09/28 08:49:37;;;;;;;12.02;2.40;;;;;;;15.26;100.00;101518.69;5043637;28;20072;-63
2021/09/28 08:52:05;;;;;;;8.77;2.47;;;;;;;15.44;100.00;101520.19;5050375;28;20131;-63
2021/09/28 08:54:32;;;;;;;11.35;2.83;;;;;;;15.52;100.00;101537.41;5045744;28;20068;-63
2021/09/28 08:57:00;;;;;;;11.13;2.97;;;;;;;15.49;100.00;101530.50;5046208;28;20466;-62
2021/09/28 08:59:49;;;;;;;7.03;2.40;;;;;;;15.68;100.00;101531.03;5040788;28;20057;-61
2021/09/28 09:02:17;;;;;;;17.95;2.97;;;;;;;15.82;100.00;101527.44;5044066;28;20067;-63
2021/09/28 09:05:03;;;;;;;12.35;3.55;;;;;;;15.78;100.00;101523.28;5040602;28;20159;-62
2021/09/28 09:07:31;;;;;;;;;;;;;;;15.76;100.00;101521.69;5042994;28;20135;-64
2021/09/28 09:09:58;;;;;;;13.73;3.33;;;;;;;15.80;100.00;101523.19;5045837;28;19954;-62
2021/09/28 09:12:38;;;;;;;9.70;2.75;;;;;;;15.80;100.00;101524.03;5043438;28;20048;-62
2021/09/28 09:15:17;;;;;;;13.48;2.45;;;;;;;15.44;100.00;101528.16;5037804;28;20056;-63
2021/09/28 09:17:46;;;;;;;10.80;2.88;;;;;;;15.58;100.00;101529.91;5041714;28;20102;-65
2021/09/28 09:20:37;;;;;;;12.68;3.03;;;;;;;15.53;100.00;101526.66;5038139;28;20505;-62
2021/09/28 09:23:18;;;;;;;11.35;2.97;;;;;;;15.56;100.00;101529.13;5039378;28;20136;-63
2021/09/28 09:25:46;;;;;;;8.93;2.00;;;;;;;15.45;100.00;101527.19;5041877;28;20083;-64
2021/09/28 09:28:34;;;;;;;15.45;3.30;;;;;;;15.47;100.00;101521.78;5043626;28;20057;-64
2021/09/28 09:31:34;;;;;;;15.00;2.47;;;;;;;15.53;100.00;101525.81;5046501;28;20053;-63
2021/09/28 09:34:14;;;;;;;10.15;3.28;;;;;;;15.76;100.00;101516.38;5037714;28;20415;-64
2021/09/28 09:37:03;;;;;;;12.68;2.85;;;;;;;15.88;100.00;101515.56;5044919;28;20116;-63
2021/09/28 09:39:48;;;;;;;12.35;2.20;;;;;;;15.81;100.00;101515.13;5042343;28;20071;-63
2021/09/28 09:42:16;;;;;;;9.20;2.72;;;;;;;15.99;100.00;101523.69;5046707;28;20127;-62
2021/09/28 09:44:45;;;;;;;16.15;2.97;;;;;;;16.00;100.00;101522.72;5043978;28;20053;-62
2021/09/28 09:47:33;;;;;;;17.95;3.53;;;;;;;15.92;100.00;101520.56;5046834;28;20053;-63
2021/09/28 09:50:17;;;;;;;11.90;3.08;;;;;;;15.63;100.00;101534.91;5040157;28;20097;-63
2021/09/28 09:52:57;;;;;;;7.85;2.05;;;;;;;15.36;100.00;101530.44;5039568;28;20073;-63
2021/09/28 09:55:28;;;;;;;11.85;3.08;;;;;;;15.60;100.00;101529.78;5042210;28;20049;-62
2021/09/28 09:57:55;;;;;;;17.92;3.70;;;;;;;15.76;100.00;101527.88;5046809;28;20566;-66
2021/09/28 10:00:23;;;;;;;11.85;3.08;;;;;;;15.85;100.00;101521.94;5034290;28;20133;-63
2021/09/28 10:02:50;;;;;;;14.30;3.47;;;;;;;16.03;100.00;101525.19;5048546;28;20147;-64
2021/09/28 10:05:18;;;;;;;15.95;3.88;;;;;;;16.10;100.00;101522.94;5039193;28;20041;-62
2021/09/28 10:07:49;;;;;;;11.95;3.03;;;;;;;16.30;100.00;101533.06;5036900;28;20068;-63
2021/09/28 10:10:21;;;;;;;11.88;4.30;;;;;;;16.38;100.00;101529.88;5038340;28;20136;-63
2021/09/28 10:12:48;;;;;;;10.00;3.35;;;;;;;16.41;100.00;101522.53;5039683;28;20060;-63
2021/09/28 10:15:17;;;;;;;14.98;3.78;;;;;;;16.28;100.00;101526.16;5037614;28;20568;-62
2021/09/28 10:17:45;;;;;;;10.88;3.13;;;;;;;16.32;100.00;101525.84;5028023;28;20052;-63
2021/09/28 10:20:22;;;;;;;11.85;3.40;;;;;;;16.08;100.00;101532.84;5025365;28;20164;-61
2021/09/28 10:22:53;;;;;;;10.85;3.60;;;;;;;16.05;100.00;101525.06;5049471;28;20670;-60
2021/09/28 10:25:20;;;;;;;12.98;4.22;;;;;;;16.30;100.00;101529.53;5035632;28;20057;-63
2021/09/28 10:28:15;;;;;;;14.77;3.60;;;;;;;16.61;100.00;101521.13;5047511;28;20499;-64
2021/09/28 10:30:44;;;;;;;14.30;4.15;;;;;;;16.50;100.00;101514.88;5043618;28;20124;-62
2021/09/28 10:33:11;;;;;;;9.98;3.03;;;;;;;16.71;100.00;101516.91;5040511;28;20128;-64
2021/09/28 10:36:07;;;;;;;13.95;4.03;;;;;;;17.08;96.92;101514.31;5041523;28;20396;-63
2021/09/28 10:38:45;;;;;;;16.52;3.40;;;;;;;16.96;98.21;101523.16;5043959;28;20207;-63
2021/09/28 10:41:42;;;;;;;12.98;3.88;;;;;;;17.10;97.04;101519.50;5039757;28;20189;-63
2021/09/28 10:44:37;;;;;;;13.20;3.15;;;;;;;16.87;93.56;101532.63;5034606;28;20372;-62
2021/09/28 10:47:04;;;;;;;11.73;2.75;;;;;;;17.29;93.12;101532.31;5047814;28;20135;-64
2021/09/28 10:49:35;;;;;;;12.75;2.22;;;;;;;17.34;88.88;101527.53;5045898;28;20055;-61
2021/09/28 10:52:20;;;;;;;9.05;3.00;;;;;;;17.31;89.90;101527.75;5042765;28;20091;-63
2021/09/28 10:55:06;;;;;;;16.60;3.05;;;;;;;17.47;90.45;101520.31;5037107;28;20467;-63
2021/09/28 11:00:41;;;;;;;12.90;3.03;;;;;;;17.51;90.45;101529.78;5038779;28;20053;-63
2021/09/28 11:03:08;;;;;;;10.68;2.83;;;;;;;17.12;87.77;101530.91;5042585;28;20175;-64
2021/09/28 11:05:40;;;;;;;11.00;3.20;;;;;;;17.18;89.13;101533.97;5043774;28;20144;-61
2021/09/28 11:08:09;;;;;;;15.95;3.13;;;;;;;17.54;91.56;101524.25;5039981;28;20096;-63
2021/09/28 11:10:37;;;;;;;11.88;3.17;;;;;;;17.56;90.41;101529.44;5033479;28;20411;-65
2021/09/28 11:13:09;;;;;;;10.57;3.15;;;;;;;17.62;90.12;101540.50;5048914;28;20491;-64
2021/09/28 11:15:36;;;;;;;10.10;3.38;;;;;;;17.70;89.77;101543.47;5048456;28;20044;-64
2021/09/28 11:18:13;;;;;;;10.27;3.22;;;;;;;17.80;89.54;101542.81;5045161;28;20488;-64
2021/09/28 11:20:41;;;;;;;9.50;2.97;;;;;;;18.03;88.35;101539.25;5045573;28;20052;-65
2021/09/28 11:23:10;;;;;;;8.57;2.70;;;;;;;18.12;85.25;101535.88;5039877;28;20496;-64
2021/09/28 11:25:40;;;;;;;8.00;2.88;;;;;;;18.03;84.36;101527.75;5055287;28;20296;-64